createdAt,value
2023-05-24T00:00:13.336Z,4.68
2023-05-24T00:00:48.214Z,4.50
2023-05-24T00:01:26.014Z,4.57
2023-05-24T00:01:58.269Z,4.20
2023-05-24T00:02:33.365Z,4.63
2023-05-24T00:03:07.173Z,4.95
2023-05-24T00:03:42.316Z,4.15
2023-05-24T00:04:19.137Z,5.20
2023-05-24T00:04:53.238Z,4.65
2023-05-24T00:05:25.515Z,4.57
2023-05-24T00:06:00.288Z,4.45
2023-05-24T00:06:35.069Z,4.10
2023-05-24T00:07:07.392Z,5.80
2023-05-24T00:07:42.259Z,4.50
2023-05-24T00:08:16.189Z,4.68
2023-05-24T00:08:48.348Z,4.82
2023-05-24T00:09:23.103Z,4.68
2023-05-24T00:09:55.336Z,4.75
2023-05-24T00:10:27.616Z,4.93
2023-05-24T00:11:02.432Z,4.25
2023-05-24T00:11:34.724Z,5.00
2023-05-24T00:12:07.166Z,4.40
2023-05-24T00:12:42.094Z,4.38
2023-05-24T00:13:15.439Z,4.82
2023-05-24T00:13:47.770Z,4.65
2023-05-24T00:14:22.567Z,4.78
2023-05-24T00:14:54.729Z,4.78
2023-05-24T00:15:26.999Z,5.30
2023-05-24T00:16:01.817Z,5.25
2023-05-24T00:16:34.059Z,4.90
2023-05-24T00:17:06.296Z,5.28
2023-05-24T00:17:43.071Z,4.63
2023-05-24T00:18:17.860Z,5.43
2023-05-24T00:18:52.747Z,4.72
2023-05-24T00:19:27.684Z,4.82
2023-05-24T00:19:59.994Z,4.75
2023-05-24T00:20:32.236Z,6.07
2023-05-24T00:21:07.309Z,4.35
2023-05-24T00:21:39.531Z,5.40
2023-05-24T00:22:14.254Z,6.72
2023-05-24T00:22:49.187Z,4.88
2023-05-24T00:23:21.749Z,5.30
2023-05-24T00:23:53.978Z,5.95
2023-05-24T00:24:28.800Z,5.38
2023-05-24T00:25:01.022Z,4.88
2023-05-24T00:25:33.193Z,4.22
2023-05-24T00:26:08.550Z,4.05
2023-05-24T00:26:41.480Z,4.38
2023-05-24T00:27:14.247Z,5.00
2023-05-24T00:27:48.997Z,4.45
2023-05-24T00:28:21.411Z,4.90
2023-05-24T00:28:53.589Z,6.18
2023-05-24T00:29:29.698Z,5.43
2023-05-24T00:30:06.748Z,3.80
2023-05-24T00:30:38.932Z,5.13
2023-05-24T00:31:13.751Z,4.57
2023-05-24T00:31:46.004Z,4.97
2023-05-24T00:32:18.391Z,5.28
2023-05-24T00:32:53.163Z,5.55
2023-05-24T00:33:25.563Z,4.30
2023-05-24T00:34:00.563Z,4.50
2023-05-24T00:34:35.706Z,4.28
2023-05-24T00:35:08.831Z,4.93
2023-05-24T00:35:41.022Z,4.75
2023-05-24T00:36:15.924Z,5.90
2023-05-24T00:36:48.086Z,4.75
2023-05-24T00:37:21.203Z,5.00
2023-05-24T00:37:57.401Z,4.32
2023-05-24T00:38:29.601Z,4.72
2023-05-24T00:39:01.813Z,4.55
2023-05-24T00:39:36.660Z,5.30
2023-05-24T00:40:10.311Z,4.72
2023-05-24T00:40:42.805Z,5.18
2023-05-24T00:41:18.352Z,4.90
2023-05-24T00:41:50.569Z,4.13
2023-05-24T00:42:22.973Z,6.13
2023-05-24T00:42:57.891Z,5.30
2023-05-24T00:43:30.119Z,5.03
2023-05-24T00:44:02.353Z,5.03
2023-05-24T00:44:34.660Z,5.22
2023-05-24T00:45:11.139Z,4.40
2023-05-24T00:45:43.612Z,4.45
2023-05-24T00:46:19.700Z,4.60
2023-05-24T00:46:54.519Z,5.43
2023-05-24T00:47:26.788Z,5.40
2023-05-24T00:47:59.704Z,5.00
2023-05-24T00:48:34.557Z,4.40
2023-05-24T00:49:10.110Z,4.85
2023-05-24T00:49:42.650Z,4.72
2023-05-24T00:50:17.652Z,5.03
2023-05-24T00:50:49.864Z,4.70
2023-05-24T00:51:22.232Z,4.65
2023-05-24T00:51:57.886Z,4.97
2023-05-24T00:52:30.152Z,5.50
2023-05-24T00:53:03.991Z,5.47
2023-05-24T00:53:40.353Z,5.38
2023-05-24T00:54:14.114Z,5.13
2023-05-24T00:54:46.742Z,4.93
2023-05-24T00:55:21.679Z,4.70
2023-05-24T00:55:55.341Z,4.80
2023-05-24T00:56:28.123Z,4.75
2023-05-24T00:57:04.995Z,5.07
2023-05-24T00:57:37.930Z,4.57
2023-05-24T00:58:10.317Z,4.82
2023-05-24T00:58:43.211Z,4.35
2023-05-24T00:59:18.448Z,5.55
2023-05-24T00:59:50.754Z,4.55
2023-05-24T01:00:23.697Z,4.95
2023-05-24T01:00:59.497Z,3.65
2023-05-24T01:01:34.351Z,4.90
2023-05-24T01:02:06.953Z,5.13
2023-05-24T01:02:39.218Z,4.72
2023-05-24T01:03:16.787Z,4.60
2023-05-24T01:03:49.352Z,5.07
2023-05-24T01:04:28.260Z,4.22
2023-05-24T01:05:00.599Z,4.38
2023-05-24T01:05:33.440Z,4.20
2023-05-24T01:06:10.208Z,4.70
2023-05-24T01:07:03.486Z,4.70
2023-05-24T01:07:46.983Z,5.05
2023-05-24T01:08:32.146Z,4.90
2023-05-24T01:09:17.584Z,4.43
2023-05-24T01:10:06.365Z,4.43
2023-05-24T01:10:46.362Z,4.80
2023-05-24T01:11:28.911Z,4.40
2023-05-24T01:12:27.298Z,4.82
2023-05-24T01:13:04.917Z,5.13
2023-05-24T01:13:47.671Z,4.53
2023-05-24T01:14:32.548Z,4.75
2023-05-24T01:15:15.963Z,3.90
2023-05-24T01:15:56.568Z,5.82
2023-05-24T01:16:52.266Z,4.53
2023-05-24T01:17:29.673Z,4.43
2023-05-24T01:18:10.271Z,4.85
2023-05-24T01:18:47.368Z,4.40
2023-05-24T01:19:45.666Z,5.13
2023-05-24T01:20:22.767Z,4.03
2023-05-24T01:21:06.935Z,4.30
2023-05-24T01:21:56.472Z,4.68
2023-05-24T01:22:56.893Z,4.35
2023-05-24T01:23:42.251Z,3.97
2023-05-24T01:24:25.688Z,4.45
2023-05-24T01:25:06.997Z,4.93
2023-05-24T01:26:09.539Z,4.20
2023-05-24T01:26:50.958Z,3.92
2023-05-24T01:27:27.125Z,6.03
2023-05-24T01:28:00.223Z,5.00
2023-05-24T01:28:36.211Z,5.20
2023-05-24T01:29:09.822Z,4.88
2023-05-24T01:29:43.405Z,5.00
2023-05-24T01:30:18.542Z,4.28
2023-05-24T01:30:51.657Z,5.05
2023-05-24T01:31:24.275Z,3.78
2023-05-24T01:32:00.024Z,4.40
2023-05-24T01:32:32.973Z,4.75
2023-05-24T01:33:05.801Z,5.55
2023-05-24T01:33:44.780Z,5.45
2023-05-24T01:34:16.967Z,5.03
2023-05-24T01:34:49.159Z,4.40
2023-05-24T01:35:24.676Z,4.68
2023-05-24T01:35:56.937Z,4.70
2023-05-24T01:36:29.143Z,4.88
2023-05-24T01:37:03.948Z,4.47
2023-05-24T01:37:37.535Z,5.95
2023-05-24T01:38:11.327Z,4.60
2023-05-24T01:38:46.895Z,5.75
2023-05-24T01:39:19.685Z,4.40
2023-05-24T01:39:52.877Z,4.68
2023-05-24T01:40:27.662Z,4.10
2023-05-24T01:41:05.530Z,5.38
2023-05-24T01:41:43.764Z,4.20
2023-05-24T01:42:31.001Z,4.95
2023-05-24T01:43:07.656Z,4.55
2023-05-24T01:43:43.805Z,4.45
2023-05-24T01:44:30.576Z,4.65
2023-05-24T01:45:09.234Z,4.78
2023-05-24T01:45:47.641Z,4.70
2023-05-24T01:46:37.778Z,4.57
2023-05-24T01:47:24.645Z,5.07
2023-05-24T01:48:04.946Z,5.45
2023-05-24T01:48:57.047Z,5.30
2023-05-24T01:49:34.703Z,4.75
2023-05-24T01:50:18.698Z,4.85
2023-05-24T01:51:00.780Z,4.78
2023-05-24T01:51:40.436Z,4.60
2023-05-24T01:52:17.338Z,4.53
2023-05-24T01:52:54.553Z,4.68
2023-05-24T01:53:33.066Z,5.68
2023-05-24T01:54:06.852Z,5.47
2023-05-24T01:54:46.485Z,4.68
2023-05-24T01:55:19.119Z,5.05
2023-05-24T01:55:53.903Z,4.85
2023-05-24T01:56:32.390Z,5.03
2023-05-24T01:57:07.477Z,4.93
2023-05-24T01:57:44.579Z,5.32
2023-05-24T01:58:19.920Z,4.45
2023-05-24T01:58:55.092Z,4.97
2023-05-24T01:59:30.558Z,4.50
2023-05-24T02:00:06.649Z,5.50
2023-05-24T02:00:45.764Z,4.18
2023-05-24T02:01:18.619Z,4.00
2023-05-24T02:01:53.938Z,5.95
2023-05-24T02:02:26.290Z,4.97
2023-05-24T02:02:59.324Z,3.97
2023-05-24T02:03:34.855Z,5.57
2023-05-24T02:04:08.116Z,5.35
2023-05-24T02:04:40.937Z,4.97
2023-05-24T02:05:15.846Z,5.43
2023-05-24T02:05:48.589Z,4.90
2023-05-24T02:06:20.920Z,4.95
2023-05-24T02:06:55.816Z,4.95
2023-05-24T02:07:27.989Z,5.15
2023-05-24T02:08:00.174Z,7.00
2023-05-24T02:08:34.976Z,6.10
2023-05-24T02:09:07.299Z,6.65
2023-05-24T02:09:39.616Z,7.72
2023-05-24T02:10:14.656Z,6.78
2023-05-24T02:10:47.056Z,6.72
2023-05-24T02:11:19.348Z,6.93
2023-05-24T02:11:54.951Z,7.53
2023-05-24T02:12:28.574Z,7.65
2023-05-24T02:13:03.360Z,6.78
2023-05-24T02:13:38.147Z,7.75
2023-05-24T02:14:10.513Z,7.78
2023-05-24T02:14:42.977Z,6.25
2023-05-24T02:15:17.908Z,7.57
2023-05-24T02:15:52.025Z,7.47
2023-05-24T02:16:24.981Z,6.50
2023-05-24T02:17:00.924Z,7.13
2023-05-24T02:17:33.343Z,6.13
2023-05-24T02:18:08.397Z,5.80
2023-05-24T02:18:44.977Z,5.80
2023-05-24T02:19:17.542Z,5.80
2023-05-24T02:19:49.756Z,6.00
2023-05-24T02:20:25.018Z,6.30
2023-05-24T02:20:57.463Z,5.90
2023-05-24T02:21:29.759Z,6.63
2023-05-24T02:22:04.769Z,7.40
2023-05-24T02:22:36.960Z,6.65
2023-05-24T02:23:09.182Z,6.28
2023-05-24T02:23:45.208Z,6.07
2023-05-24T02:24:18.864Z,6.18
2023-05-24T02:24:53.809Z,6.05
2023-05-24T02:25:26.311Z,6.45
2023-05-24T02:25:58.490Z,6.18
2023-05-24T02:26:30.895Z,6.63
2023-05-24T02:27:05.644Z,6.20
2023-05-24T02:27:38.126Z,6.90
2023-05-24T02:28:12.921Z,5.75
2023-05-24T02:28:48.494Z,7.00
2023-05-24T02:29:21.899Z,5.65
2023-05-24T02:29:54.145Z,6.65
2023-05-24T02:30:29.173Z,5.65
2023-05-24T02:31:01.396Z,6.65
2023-05-24T02:31:33.731Z,7.15
2023-05-24T02:32:09.451Z,6.93
2023-05-24T02:32:41.770Z,6.40
2023-05-24T02:33:14.293Z,6.57
2023-05-24T02:33:49.119Z,6.05
2023-05-24T02:34:21.426Z,5.93
2023-05-24T02:34:53.909Z,5.68
2023-05-24T02:35:26.383Z,7.03
2023-05-24T02:36:01.205Z,6.38
2023-05-24T02:36:36.412Z,6.55
2023-05-24T02:37:08.742Z,6.38
2023-05-24T02:37:43.714Z,6.65
2023-05-24T02:38:15.972Z,6.05
2023-05-24T02:38:48.158Z,7.22
2023-05-24T02:39:23.096Z,6.50
2023-05-24T02:39:55.310Z,6.78
2023-05-24T02:40:27.911Z,6.88
2023-05-24T02:41:02.710Z,5.75
2023-05-24T02:41:34.961Z,6.18
2023-05-24T02:42:08.945Z,6.55
2023-05-24T02:42:43.688Z,6.40
2023-05-24T02:43:18.884Z,6.00
2023-05-24T02:43:51.199Z,7.15
2023-05-24T02:44:25.951Z,6.13
2023-05-24T02:44:58.235Z,5.70
2023-05-24T02:45:30.553Z,5.43
2023-05-24T02:46:05.649Z,5.55
2023-05-24T02:46:37.997Z,6.90
2023-05-24T02:47:10.368Z,6.32
2023-05-24T02:47:45.558Z,6.97
2023-05-24T02:48:17.790Z,6.40
2023-05-24T02:48:50.106Z,6.43
2023-05-24T02:49:22.277Z,6.32
2023-05-24T02:49:57.171Z,6.20
2023-05-24T02:50:29.566Z,7.38
2023-05-24T02:51:03.455Z,6.07
2023-05-24T02:51:38.429Z,6.55
2023-05-24T02:52:11.059Z,6.70
2023-05-24T02:52:43.303Z,6.60
2023-05-24T02:53:18.177Z,6.22
2023-05-24T02:53:50.410Z,7.13
2023-05-24T02:54:22.630Z,6.00
2023-05-24T02:54:58.466Z,6.22
2023-05-24T02:55:32.585Z,5.43
2023-05-24T02:56:05.868Z,7.20
2023-05-24T02:56:41.298Z,5.22
2023-05-24T02:57:13.723Z,5.60
2023-05-24T02:57:48.761Z,5.85
2023-05-24T02:58:29.296Z,5.53
2023-05-24T02:59:35.225Z,5.32
2023-05-24T03:00:12.127Z,6.07
2023-05-24T03:00:46.291Z,5.47
2023-05-24T03:01:18.544Z,5.68
2023-05-24T03:01:51.187Z,5.22
2023-05-24T03:02:28.837Z,5.90
2023-05-24T03:03:03.416Z,5.20
2023-05-24T03:03:35.995Z,5.85
2023-05-24T03:04:12.505Z,5.32
2023-05-24T03:04:44.684Z,7.32
2023-05-24T03:05:18.385Z,5.65
2023-05-24T03:05:53.219Z,5.15
2023-05-24T03:06:25.442Z,5.38
2023-05-24T03:06:57.704Z,5.63
2023-05-24T03:07:32.472Z,5.28
2023-05-24T03:08:06.613Z,4.75
2023-05-24T03:08:38.875Z,5.45
2023-05-24T03:09:13.667Z,5.85
2023-05-24T03:09:45.866Z,5.10
2023-05-24T03:10:18.362Z,5.10
2023-05-24T03:10:53.119Z,5.13
2023-05-24T03:11:26.452Z,5.63
2023-05-24T03:11:58.733Z,4.68
2023-05-24T03:12:33.511Z,5.25
2023-05-24T03:13:05.862Z,5.47
2023-05-24T03:13:41.223Z,6.10
2023-05-24T03:14:17.575Z,8.02
2023-05-24T03:16:06.836Z,5.50
2023-05-24T03:16:39.062Z,6.18
2023-05-24T03:18:58.994Z,5.95
2023-05-24T03:19:31.553Z,5.57
2023-05-24T03:20:06.237Z,5.18
2023-05-24T03:20:41.706Z,5.22
2023-05-24T03:21:14.223Z,4.93
2023-05-24T03:21:46.589Z,4.30
2023-05-24T03:22:21.387Z,4.93
2023-05-24T03:22:53.811Z,5.13
2023-05-24T03:23:26.088Z,6.38
2023-05-24T03:24:01.665Z,6.20
2023-05-24T03:24:34.497Z,5.55
2023-05-24T03:25:08.926Z,6.10
2023-05-24T03:25:44.010Z,4.90
2023-05-24T03:26:17.156Z,6.40
2023-05-24T03:26:49.378Z,5.82
2023-05-24T03:27:25.145Z,7.70
2023-05-24T03:27:57.364Z,6.13
2023-05-24T03:28:30.359Z,6.30
2023-05-24T03:29:08.472Z,7.38
2023-05-24T03:29:44.523Z,6.82
2023-05-24T03:30:17.276Z,5.88
2023-05-24T03:30:59.769Z,5.63
2023-05-24T03:31:32.727Z,5.80
2023-05-24T03:32:05.969Z,5.82
2023-05-24T03:32:40.939Z,6.90
2023-05-24T03:33:13.317Z,6.40
2023-05-24T03:33:45.477Z,6.53
2023-05-24T03:34:20.716Z,5.93
2023-05-24T03:34:53.260Z,5.85
2023-05-24T03:35:25.782Z,7.93
2023-05-24T03:36:00.712Z,6.68
2023-05-24T03:36:36.726Z,6.53
2023-05-24T03:37:09.209Z,7.05
2023-05-24T03:37:41.957Z,6.97
2023-05-24T03:38:17.074Z,5.75
2023-05-24T03:38:52.393Z,8.65
2023-05-24T03:39:25.837Z,5.57
2023-05-24T03:40:20.747Z,5.78
2023-05-24T03:41:30.419Z,6.55
2023-05-24T03:42:08.133Z,7.35
2023-05-24T03:42:40.409Z,7.32
2023-05-24T03:43:13.499Z,9.25
2023-05-24T03:44:11.282Z,7.68
2023-05-24T03:44:44.103Z,6.85
2023-05-24T03:45:24.140Z,7.60
2023-05-24T03:46:05.789Z,5.65
2023-05-24T03:46:38.091Z,6.75
2023-05-24T03:47:10.927Z,6.38
2023-05-24T03:47:45.713Z,6.53
2023-05-24T03:48:20.952Z,5.93
2023-05-24T03:48:53.346Z,6.43
2023-05-24T03:49:28.195Z,5.43
2023-05-24T03:50:00.911Z,7.13
2023-05-24T03:50:33.095Z,6.85
2023-05-24T03:51:09.435Z,7.13
2023-05-24T03:51:41.775Z,7.07
2023-05-24T03:52:14.046Z,5.90
2023-05-24T03:52:50.116Z,5.80
2023-05-24T03:53:23.133Z,7.38
2023-05-24T03:53:56.799Z,8.63
2023-05-24T03:54:31.727Z,7.38
2023-05-24T03:55:04.124Z,5.80
2023-05-24T03:55:36.696Z,7.20
2023-05-24T03:56:11.546Z,7.20
2023-05-24T03:56:44.219Z,7.25
2023-05-24T03:57:16.418Z,8.45
2023-05-24T03:57:51.197Z,6.88
2023-05-24T03:58:23.377Z,7.57
2023-05-24T03:58:58.009Z,6.25
2023-05-24T03:59:35.528Z,6.65
2023-05-24T04:00:10.129Z,7.18
2023-05-24T04:00:48.724Z,6.95
2023-05-24T04:01:32.675Z,6.43
2023-05-24T04:02:09.446Z,7.32
2023-05-24T04:02:41.748Z,7.53
2023-05-24T04:03:15.012Z,7.70
2023-05-24T04:03:51.524Z,7.55
2023-05-24T04:04:23.884Z,6.10
2023-05-24T04:04:57.961Z,6.93
2023-05-24T04:05:32.733Z,5.72
2023-05-24T04:06:05.301Z,7.68
2023-05-24T04:06:38.376Z,7.43
2023-05-24T04:07:14.016Z,6.82
2023-05-24T04:07:46.653Z,5.07
2023-05-24T04:08:21.482Z,6.38
2023-05-24T04:08:53.915Z,7.43
2023-05-24T04:09:26.082Z,6.28
2023-05-24T04:10:00.986Z,9.07
2023-05-24T04:10:33.225Z,7.40
2023-05-24T04:11:05.544Z,6.10
2023-05-24T04:11:40.327Z,6.45
2023-05-24T04:12:12.539Z,7.53
2023-05-24T04:12:47.166Z,6.25
2023-05-24T04:13:22.473Z,12.00
2023-05-24T04:13:56.217Z,7.22
2023-05-24T04:14:28.482Z,8.57
2023-05-24T04:15:05.953Z,7.10
2023-05-24T04:15:38.458Z,7.80
2023-05-24T04:16:10.747Z,6.65
2023-05-24T04:16:45.676Z,7.15
2023-05-24T04:17:18.763Z,6.40
2023-05-24T04:17:55.388Z,7.57
2023-05-24T04:18:30.594Z,6.15
2023-05-24T04:19:04.195Z,5.82
2023-05-24T04:19:36.520Z,8.70
2023-05-24T04:20:12.566Z,8.75
2023-05-24T04:20:45.164Z,7.70
2023-05-24T04:21:17.698Z,7.13
2023-05-24T04:21:52.957Z,6.07
2023-05-24T04:22:25.789Z,7.20
2023-05-24T04:22:58.108Z,7.63
2023-05-24T04:23:32.868Z,9.63
2023-05-24T04:24:06.207Z,7.80
2023-05-24T04:24:38.442Z,9.23
2023-05-24T04:25:13.373Z,6.97
2023-05-24T04:25:45.642Z,8.25
2023-05-24T04:26:21.483Z,8.98
2023-05-24T04:26:54.313Z,10.70
2023-05-24T04:27:27.225Z,8.23
2023-05-24T04:28:02.648Z,9.77
2023-05-24T04:28:38.322Z,8.38
2023-05-24T04:29:10.501Z,9.05
2023-05-24T04:29:49.760Z,9.90
2023-05-24T04:30:24.789Z,12.98
2023-05-24T04:30:57.933Z,7.82
2023-05-24T04:31:34.515Z,11.32
2023-05-24T04:32:07.261Z,7.93
2023-05-24T04:32:40.862Z,8.20
2023-05-24T04:33:17.091Z,7.63
2023-05-24T04:33:50.294Z,8.38
2023-05-24T04:34:22.588Z,9.10
2023-05-24T04:34:58.472Z,10.77
2023-05-24T04:35:31.025Z,9.05
2023-05-24T04:36:03.682Z,13.10
2023-05-24T04:36:38.670Z,8.30
2023-05-24T04:37:10.995Z,9.98
2023-05-24T04:37:43.340Z,9.57
2023-05-24T04:38:21.824Z,10.70
2023-05-24T04:38:56.666Z,10.73
2023-05-24T04:39:30.431Z,10.50
2023-05-24T04:40:06.760Z,9.32
2023-05-24T04:40:39.138Z,11.80
2023-05-24T04:41:11.603Z,7.32
2023-05-24T04:41:46.468Z,9.45
2023-05-24T04:42:18.690Z,8.32
2023-05-24T04:42:51.346Z,8.35
2023-05-24T04:43:26.527Z,9.32
2023-05-24T04:44:00.031Z,8.57
2023-05-24T04:44:32.229Z,9.90
2023-05-24T04:45:07.541Z,10.07
2023-05-24T04:45:42.458Z,10.07
2023-05-24T04:46:14.791Z,10.63
2023-05-24T04:46:49.682Z,16.67
2023-05-24T04:47:22.015Z,14.57
2023-05-24T04:47:54.285Z,14.35
2023-05-24T04:48:29.173Z,11.95
2023-05-24T04:49:02.304Z,10.63
2023-05-24T04:49:34.508Z,11.25
2023-05-24T04:50:10.314Z,10.10
2023-05-24T04:50:42.922Z,14.05
2023-05-24T04:51:15.320Z,8.93
2023-05-24T04:51:50.204Z,9.55
2023-05-24T04:52:22.860Z,8.43
2023-05-24T04:52:55.155Z,9.30
2023-05-24T04:53:29.974Z,10.38
2023-05-24T04:54:08.830Z,9.95
2023-05-24T04:54:41.407Z,10.93
2023-05-24T04:55:16.327Z,11.93
2023-05-24T04:55:48.991Z,11.75
2023-05-24T04:56:21.217Z,13.23
2023-05-24T04:56:55.974Z,11.90
2023-05-24T04:57:28.177Z,10.80
2023-05-24T04:58:00.481Z,11.07
2023-05-24T04:58:36.275Z,12.57
2023-05-24T04:59:10.119Z,10.23
2023-05-24T04:59:42.353Z,11.93
2023-05-24T05:00:18.214Z,11.68
2023-05-24T05:00:53.021Z,12.45
2023-05-24T05:01:25.366Z,11.75
2023-05-24T05:02:00.410Z,8.75
2023-05-24T05:02:33.296Z,12.05
2023-05-24T05:03:05.849Z,9.90
2023-05-24T05:03:41.234Z,10.07
2023-05-24T05:04:13.853Z,9.55
2023-05-24T05:04:46.099Z,13.05
2023-05-24T05:05:21.498Z,10.93
2023-05-24T05:05:53.700Z,11.75
2023-05-24T05:06:26.017Z,10.55
2023-05-24T05:07:00.871Z,14.00
2023-05-24T05:07:33.298Z,11.35
2023-05-24T05:08:05.565Z,11.70
2023-05-24T05:08:40.481Z,15.50
2023-05-24T05:09:14.947Z,12.93
2023-05-24T05:09:47.784Z,14.02
2023-05-24T05:10:23.856Z,13.07
2023-05-24T05:10:56.882Z,10.65
2023-05-24T05:11:29.126Z,9.35
2023-05-24T05:12:03.905Z,7.78
2023-05-24T05:12:36.220Z,8.43
2023-05-24T05:13:08.434Z,8.88
2023-05-24T05:13:43.312Z,9.98
2023-05-24T05:14:15.553Z,8.43
2023-05-24T05:14:47.783Z,9.82
2023-05-24T05:15:24.304Z,9.90
2023-05-24T05:15:59.090Z,10.50
2023-05-24T05:16:32.098Z,9.52
2023-05-24T05:17:07.157Z,9.80
2023-05-24T05:17:39.441Z,12.05
2023-05-24T05:18:11.814Z,12.02
2023-05-24T05:18:46.587Z,10.52
2023-05-24T05:19:19.501Z,9.80
2023-05-24T05:19:54.342Z,9.80
2023-05-24T05:20:26.786Z,10.05
2023-05-24T05:21:01.661Z,13.77
2023-05-24T05:21:34.512Z,12.40
2023-05-24T05:22:09.296Z,13.02
2023-05-24T05:22:46.332Z,13.60
2023-05-24T05:23:18.516Z,12.05
2023-05-24T05:23:54.937Z,12.40
2023-05-24T05:24:27.301Z,14.55
2023-05-24T05:25:02.673Z,15.07
2023-05-24T05:25:36.158Z,13.27
2023-05-24T05:26:08.325Z,11.13
2023-05-24T05:26:43.198Z,11.82
2023-05-24T05:27:15.677Z,12.95
2023-05-24T05:27:47.888Z,11.98
2023-05-24T05:28:22.669Z,12.57
2023-05-24T05:28:54.978Z,14.95
2023-05-24T05:29:27.232Z,11.75
2023-05-24T05:30:02.030Z,12.02
2023-05-24T05:30:34.297Z,12.15
2023-05-24T05:31:11.759Z,10.00
2023-05-24T05:31:44.231Z,13.18
2023-05-24T05:32:19.196Z,11.13
2023-05-24T05:32:51.531Z,15.45
2023-05-24T05:33:23.806Z,13.52
2023-05-24T05:33:58.620Z,14.55
2023-05-24T05:34:30.848Z,14.05
2023-05-24T05:35:03.170Z,13.90
2023-05-24T05:35:37.942Z,14.63
2023-05-24T05:36:10.207Z,15.20
2023-05-24T05:36:42.828Z,16.02
2023-05-24T05:37:17.684Z,13.57
2023-05-24T05:37:49.966Z,15.43
2023-05-24T05:38:22.201Z,17.38
2023-05-24T05:38:57.493Z,12.52
2023-05-24T05:39:31.942Z,10.70
2023-05-24T05:40:04.965Z,13.05
2023-05-24T05:40:39.916Z,16.40
2023-05-24T05:41:12.363Z,13.40
2023-05-24T05:41:47.430Z,13.35
2023-05-24T05:42:19.726Z,12.82
2023-05-24T05:42:51.887Z,15.95
2023-05-24T05:43:27.209Z,14.68
2023-05-24T05:43:59.373Z,14.02
2023-05-24T05:44:31.561Z,14.07
2023-05-24T05:45:06.829Z,14.20
2023-05-24T05:45:39.045Z,17.02
2023-05-24T05:46:15.844Z,15.55
2023-05-24T05:46:50.632Z,10.93
2023-05-24T05:47:22.942Z,15.25
2023-05-24T05:47:55.271Z,10.43
2023-05-24T05:48:30.302Z,11.63
2023-05-24T05:49:02.600Z,12.80
2023-05-24T05:49:36.563Z,15.80
2023-05-24T05:50:12.254Z,13.02
2023-05-24T05:50:44.627Z,14.60
2023-05-24T05:51:16.924Z,14.60
2023-05-24T05:51:53.183Z,14.68
2023-05-24T05:52:25.399Z,12.95
2023-05-24T05:52:58.188Z,13.65
2023-05-24T05:53:32.939Z,12.45
2023-05-24T05:54:05.561Z,15.27
2023-05-24T05:54:40.379Z,15.32
2023-05-24T05:55:12.662Z,12.05
2023-05-24T05:55:44.874Z,15.80
2023-05-24T05:56:19.664Z,12.38
2023-05-24T05:56:52.477Z,15.63
2023-05-24T05:57:27.373Z,12.38
2023-05-24T05:57:59.542Z,13.02
2023-05-24T05:58:31.706Z,13.05
2023-05-24T05:59:06.587Z,13.75
2023-05-24T05:59:38.878Z,13.10
2023-05-24T06:00:12.463Z,11.75
2023-05-24T06:00:47.228Z,14.70
2023-05-24T06:01:22.022Z,13.90
2023-05-24T06:01:54.273Z,11.73
2023-05-24T06:02:29.160Z,11.75
2023-05-24T06:03:01.614Z,12.90
2023-05-24T06:03:34.045Z,12.07
2023-05-24T06:04:09.234Z,12.70
2023-05-24T06:04:41.710Z,12.25
2023-05-24T06:05:15.973Z,13.45
2023-05-24T06:05:51.359Z,10.60
2023-05-24T06:06:23.551Z,16.50
2023-05-24T06:06:55.891Z,11.70
2023-05-24T06:07:30.916Z,12.52
2023-05-24T06:08:03.097Z,13.82
2023-05-24T06:08:35.469Z,13.50
2023-05-24T06:09:10.774Z,11.52
2023-05-24T06:09:43.080Z,12.85
2023-05-24T06:10:15.326Z,15.20
2023-05-24T06:10:52.751Z,16.55
2023-05-24T06:11:25.266Z,13.60
2023-05-24T06:12:00.124Z,16.27
2023-05-24T06:12:32.385Z,11.90
2023-05-24T06:13:04.742Z,13.50
2023-05-24T06:13:39.476Z,12.52
2023-05-24T06:14:12.433Z,11.65
2023-05-24T06:14:48.490Z,12.77
2023-05-24T06:15:23.133Z,12.32
2023-05-24T06:15:55.749Z,16.90
2023-05-24T06:16:33.114Z,12.48
2023-05-24T06:17:05.970Z,13.18
2023-05-24T06:17:42.487Z,17.20
2023-05-24T06:18:15.577Z,17.92
2023-05-24T06:19:04.711Z,11.18
2023-05-24T06:19:38.747Z,15.52
2023-05-24T06:20:17.180Z,13.65
2023-05-24T06:20:49.793Z,12.02
2023-05-24T06:21:22.052Z,10.20
2023-05-24T06:21:57.763Z,18.75
2023-05-24T06:22:30.044Z,9.20
2023-05-24T06:23:05.401Z,10.70
2023-05-24T06:23:38.122Z,10.75
2023-05-24T06:24:10.438Z,10.82
2023-05-24T06:24:45.177Z,13.63
2023-05-24T06:25:20.997Z,11.25
2023-05-24T06:25:53.248Z,11.48
2023-05-24T06:26:28.304Z,10.32
2023-05-24T06:27:01.031Z,8.75
2023-05-24T06:27:36.749Z,11.75
2023-05-24T06:28:09.145Z,6.22
2023-05-24T06:28:41.361Z,6.93
2023-05-24T06:29:16.284Z,7.40
2023-05-24T06:29:49.357Z,7.38
2023-05-24T06:30:22.025Z,5.68
2023-05-24T06:30:56.957Z,5.88
2023-05-24T06:31:31.793Z,6.10
2023-05-24T06:32:04.832Z,4.55
2023-05-24T06:32:40.053Z,3.85
2023-05-24T06:33:12.349Z,6.15
2023-05-24T06:33:59.811Z,5.28
2023-05-24T06:34:35.907Z,5.25
2023-05-24T06:35:11.742Z,5.35
2023-05-24T06:35:44.095Z,5.53
2023-05-24T06:36:18.889Z,5.78
2023-05-24T06:36:53.176Z,4.75
2023-05-24T06:37:31.422Z,5.07
2023-05-24T06:38:03.614Z,5.28
2023-05-24T06:38:36.676Z,5.20
2023-05-24T06:39:11.645Z,4.93
2023-05-24T06:39:43.899Z,4.53
2023-05-24T06:40:16.331Z,4.20
2023-05-24T06:40:51.491Z,5.63
2023-05-24T06:41:24.016Z,14.10
2023-05-24T06:41:56.421Z,13.02
2023-05-24T06:42:34.001Z,12.10
2023-05-24T06:43:06.233Z,13.27
2023-05-24T06:43:38.989Z,10.27
2023-05-24T06:44:13.754Z,9.88
2023-05-24T06:44:45.998Z,9.15
2023-05-24T06:45:18.374Z,10.02
2023-05-24T06:45:53.167Z,10.18
2023-05-24T06:46:25.501Z,11.65
2023-05-24T06:47:00.477Z,13.80
2023-05-24T06:47:35.395Z,13.35
2023-05-24T06:48:07.786Z,12.15
2023-05-24T06:48:42.764Z,11.38
2023-05-24T06:49:15.179Z,17.13
2023-05-24T06:49:48.246Z,12.63
2023-05-24T06:50:23.413Z,13.18
2023-05-24T06:50:56.046Z,15.73
2023-05-24T06:51:28.517Z,17.00
2023-05-24T06:52:03.344Z,11.30
2023-05-24T06:52:35.600Z,12.98
2023-05-24T06:53:08.140Z,11.48
2023-05-24T06:53:42.981Z,11.38
2023-05-24T06:54:15.239Z,13.45
2023-05-24T06:54:47.436Z,12.00
2023-05-24T06:55:22.913Z,14.90
2023-05-24T06:55:57.519Z,9.85
2023-05-24T06:56:29.900Z,8.00
2023-05-24T06:57:04.706Z,12.25
2023-05-24T06:57:36.944Z,13.77
2023-05-24T06:58:14.506Z,13.18
2023-05-24T06:58:49.402Z,10.48
2023-05-24T06:59:21.722Z,13.82
2023-05-24T06:59:54.052Z,11.73
2023-05-24T07:00:28.799Z,12.10
2023-05-24T07:01:01.079Z,8.80
2023-05-24T07:01:33.980Z,9.27
2023-05-24T07:02:11.464Z,7.82
2023-05-24T07:02:43.906Z,7.90
2023-05-24T07:03:16.648Z,7.32
2023-05-24T07:03:51.905Z,9.45
2023-05-24T07:04:25.279Z,11.63
2023-05-24T07:05:00.222Z,10.23
2023-05-24T07:05:32.534Z,6.68
2023-05-24T07:06:05.407Z,7.75
2023-05-24T07:06:40.472Z,7.72
2023-05-24T07:07:13.904Z,8.82
2023-05-24T07:07:48.765Z,7.60
2023-05-24T07:08:20.963Z,5.90
2023-05-24T07:08:56.217Z,7.75
2023-05-24T07:09:28.462Z,8.93
2023-05-24T07:10:03.332Z,9.90
2023-05-24T07:10:35.562Z,10.30
2023-05-24T07:11:08.237Z,9.63
2023-05-24T07:11:43.952Z,8.15
2023-05-24T07:12:16.365Z,8.50
2023-05-24T07:12:51.277Z,8.63
2023-05-24T07:13:23.664Z,8.35
2023-05-24T07:13:56.038Z,8.05
2023-05-24T07:14:30.999Z,7.70
2023-05-24T07:15:03.247Z,7.72
2023-05-24T07:15:35.477Z,6.63
2023-05-24T07:16:10.253Z,7.57
2023-05-24T07:16:42.483Z,6.93
2023-05-24T07:17:19.920Z,8.25
2023-05-24T07:17:52.948Z,10.18
2023-05-24T07:18:27.897Z,8.85
2023-05-24T07:19:02.504Z,10.07
2023-05-24T07:19:36.278Z,11.85
2023-05-24T07:20:13.954Z,9.43
2023-05-24T07:20:46.527Z,7.53
2023-05-24T07:21:18.979Z,9.05
2023-05-24T07:21:53.883Z,10.20
2023-05-24T07:22:28.848Z,7.65
2023-05-24T07:23:04.064Z,11.20
2023-05-24T07:23:37.948Z,6.97
2023-05-24T07:24:10.228Z,8.27
2023-05-24T07:24:45.006Z,12.00
2023-05-24T07:25:17.614Z,8.80
2023-05-24T07:25:49.795Z,9.18
2023-05-24T07:26:24.755Z,9.02
2023-05-24T07:26:57.904Z,5.50
2023-05-24T07:27:30.350Z,8.13
2023-05-24T07:28:05.927Z,9.65
2023-05-24T07:28:39.050Z,8.32
2023-05-24T07:29:11.290Z,10.20
2023-05-24T07:29:48.209Z,10.00
2023-05-24T07:30:31.789Z,7.57
2023-05-24T07:31:05.473Z,7.95
2023-05-24T07:31:40.276Z,5.55
2023-05-24T07:32:12.789Z,7.45
2023-05-24T07:32:50.539Z,6.53
2023-05-24T07:33:22.872Z,7.07
2023-05-24T07:33:55.126Z,8.80
2023-05-24T07:34:30.413Z,9.43
2023-05-24T07:35:02.619Z,8.43
2023-05-24T07:35:35.202Z,5.00
2023-05-24T07:36:10.400Z,5.65
2023-05-24T07:36:42.635Z,6.65
2023-05-24T07:37:14.823Z,8.40
2023-05-24T07:37:49.591Z,8.90
2023-05-24T07:38:22.211Z,7.68
2023-05-24T07:38:57.003Z,5.60
2023-05-24T07:39:29.284Z,5.88
2023-05-24T07:40:01.579Z,7.70